Time;durP1;ratioP1;P1;durP2;ratioP2;P2;SDS_P1;SDS_P2;PMS_P1;PMS_P2;Temp;Humidity;BMP_temperature;BMP_pressure;BME280_temperature;BME280_humidity;BME280_pressure;Samples;Min_cycle;Max_cycle;Signal;HPM_P1;HPM_P2
2023/03/04 00:01:34;;;;;;;16.30;7.00;;;;;;;2.26;91.84;99130.86;105796;1254;61765;-75
2023/03/04 00:04:22;;;;;;;16.90;6.10;;;;;;;2.30;91.42;99128.55;105956;1253;70603;-73
2023/03/04 00:07:15;;;;;;;17.50;6.90;;;;;;;2.34;91.08;99121.52;105700;1258;66914;-74
2023/03/04 00:10:05;;;;;;;15.90;6.10;;;;;;;2.35;91.18;99121.09;105540;1254;72917;-74
2023/03/04 00:12:53;;;;;;;22.50;6.10;;;;;;;2.37;91.23;99117.64;105648;1259;59426;-74
2023/03/04 00:15:41;;;;;;;14.30;6.90;;;;;;;2.39;90.92;99120.31;105724;1253;61908;-74
2023/03/04 00:18:29;;;;;;;17.30;5.70;;;;;;;2.43;90.84;99114.48;105772;1254;72203;-75
2023/03/04 00:21:17;;;;;;;18.70;6.10;;;;;;;2.46;90.93;99114.34;105694;1254;69580;-77
2023/03/04 00:24:06;;;;;;;16.10;5.60;;;;;;;2.47;90.71;99106.18;105685;1259;72387;-75
2023/03/04 00:26:53;;;;;;;18.00;6.20;;;;;;;2.50;90.45;99109.18;105690;1254;60243;-77
2023/03/04 00:29:41;;;;;;;18.10;6.30;;;;;;;2.51;90.41;99105.96;105701;1254;60456;-76
2023/03/04 00:32:30;;;;;;;19.50;6.30;;;;;;;2.54;90.35;99106.32;105600;1254;72594;-75
2023/03/04 00:35:18;;;;;;;21.50;6.60;;;;;;;2.55;90.16;99103.77;105522;1257;67580;-77
2023/03/04 00:38:07;;;;;;;14.20;5.10;;;;;;;2.55;90.06;99098.34;105655;1254;73017;-76
2023/03/04 00:40:56;;;;;;;18.80;5.90;;;;;;;2.56;89.95;99089.73;105667;1254;59263;-76
2023/03/04 00:43:44;;;;;;;19.90;6.00;;;;;;;2.56;89.79;99088.66;105526;1254;61639;-75
2023/03/04 00:46:32;;;;;;;18.20;6.10;;;;;;;2.55;89.91;99085.39;105697;1254;70668;-75
2023/03/04 00:49:21;;;;;;;15.10;5.40;;;;;;;2.54;89.94;99081.94;105740;1254;67464;-75
2023/03/04 00:52:09;;;;;;;13.20;4.70;;;;;;;2.53;89.89;99078.15;105613;1252;72698;-77
2023/03/04 00:54:57;;;;;;;17.30;5.30;;;;;;;2.52;89.96;99083.67;105574;1254;59590;-76
2023/03/04 00:57:45;;;;;;;12.60;4.50;;;;;;;2.50;89.78;99077.80;106426;1253;59421;-77
2023/03/04 01:00:35;;;;;;;14.60;4.50;;;;;;;2.49;89.98;99077.56;105662;1257;71941;-75
2023/03/04 01:03:25;;;;;;;14.10;4.20;;;;;;;2.48;89.98;99077.95;105869;1254;65387;-77
2023/03/04 01:06:13;;;;;;;16.80;5.10;;;;;;;2.47;89.99;99069.45;105749;1254;73592;-76
2023/03/04 01:09:02;;;;;;;16.00;4.70;;;;;;;2.45;89.79;99070.23;105683;1255;59333;-78
2023/03/04 01:11:50;;;;;;;17.90;5.20;;;;;;;2.46;89.59;99069.86;105603;1254;181628;-77
2023/03/04 01:14:38;;;;;;;15.70;5.00;;;;;;;2.47;89.43;99071.73;105837;1256;71957;-78
2023/03/04 01:17:27;;;;;;;13.80;4.10;;;;;;;2.48;89.43;99072.34;105908;1254;66453;-77
2023/03/04 01:20:16;;;;;;;15.10;3.90;;;;;;;2.48;89.24;99071.13;105733;1257;73585;-77
2023/03/04 01:23:04;;;;;;;18.50;4.70;;;;;;;2.48;89.14;99069.20;105718;1254;59295;-77
2023/03/04 01:25:52;;;;;;;14.90;4.20;;;;;;;2.47;89.39;99065.19;106037;1253;61627;-77
2023/03/04 01:28:40;;;;;;;13.50;4.10;;;;;;;2.48;89.31;99060.08;106058;1253;72800;-77
2023/03/04 01:31:29;;;;;;;13.10;3.90;;;;;;;2.50;89.28;99061.70;105869;1259;67941;-76
2023/03/04 01:34:17;;;;;;;12.60;3.80;;;;;;;2.52;88.99;99057.55;105909;1253;72421;-77
2023/03/04 01:37:05;;;;;;;16.40;4.30;;;;;;;2.54;88.92;99061.84;105806;1258;59254;-77
2023/03/04 01:39:53;;;;;;;12.40;3.90;;;;;;;2.54;89.05;99063.77;105757;1258;60179;-76
2023/03/04 01:42:44;;;;;;;12.80;3.80;;;;;;;2.53;89.07;99062.40;105672;1253;71939;-77
2023/03/04 01:45:32;;;;;;;13.90;3.80;;;;;;;2.52;89.05;99063.70;105574;1254;67888;-77
2023/03/04 01:48:41;;;;;;;14.50;4.60;;;;;;;2.50;89.25;99050.89;105650;1258;72618;-79
2023/03/04 01:51:29;;;;;;;15.20;3.90;;;;;;;2.46;89.13;99044.26;106451;1254;59332;-77
2023/03/04 01:54:18;;;;;;;11.50;3.50;;;;;;;2.44;89.14;99045.27;106146;1254;60471;-78
2023/03/04 01:57:25;;;;;;;14.50;3.60;;;;;;;2.42;89.12;99046.46;105815;1254;73672;-77
2023/03/04 02:00:32;;;;;;;10.30;3.00;;;;;;;2.35;89.39;99048.27;105719;1257;67626;-76
2023/03/04 02:03:21;;;;;;;15.10;3.70;;;;;;;2.29;89.90;99043.74;105936;1259;72771;-76
2023/03/04 02:06:09;;;;;;;14.40;3.90;;;;;;;2.24;89.77;99049.97;105520;1259;60052;-76
2023/03/04 02:08:57;;;;;;;15.70;4.00;;;;;;;2.20;90.21;99050.71;105892;1253;61320;-76
2023/03/04 02:11:48;;;;;;;13.30;3.20;;;;;;;2.17;90.10;99046.50;105747;1259;73123;-78
2023/03/04 02:14:37;;;;;;;15.20;3.40;;;;;;;2.13;90.36;99043.29;105428;1254;66351;-76
2023/03/04 02:17:27;;;;;;;11.40;3.10;;;;;;;2.09;90.58;99039.98;105780;1259;74262;-77
2023/03/04 02:20:58;;;;;;;13.80;3.60;;;;;;;2.03;90.86;99038.03;105549;1259;59407;-77
2023/03/04 02:24:17;;;;;;;12.50;3.60;;;;;;;1.99;91.19;99038.09;106187;1254;60063;-76
2023/03/04 02:27:06;;;;;;;11.30;2.80;;;;;;;1.96;91.53;99036.73;105708;1259;73084;-77
2023/03/04 02:29:54;;;;;;;13.30;3.00;;;;;;;1.94;91.46;99034.23;105538;1257;67877;-79
2023/03/04 02:32:42;;;;;;;12.70;3.40;;;;;;;1.89;92.12;99035.58;105506;1258;72716;-77
2023/03/04 02:35:31;;;;;;;16.60;3.60;;;;;;;1.84;92.08;99032.89;105618;1259;60268;-77
2023/03/04 02:38:20;;;;;;;18.20;4.00;;;;;;;1.79;92.55;99039.10;105594;1254;62084;-77
2023/03/04 02:41:15;;;;;;;11.90;3.50;;;;;;;1.76;93.32;99033.55;105565;1256;69860;-77
2023/03/04 02:44:15;;;;;;;13.00;3.20;;;;;;;1.71;93.41;99033.46;105681;1254;67805;-77
2023/03/04 02:47:08;;;;;;;17.70;3.40;;;;;;;1.66;94.07;99036.02;105844;1254;71335;-78
2023/03/04 02:49:56;;;;;;;15.40;3.80;;;;;;;1.62;94.55;99035.16;105359;1254;59266;-78
2023/03/04 02:52:44;;;;;;;21.20;4.10;;;;;;;1.62;95.11;99036.09;105506;1259;59275;-77
2023/03/04 02:55:32;;;;;;;14.50;3.60;;;;;;;1.60;94.67;99034.61;105596;1254;71040;-77
2023/03/04 02:58:21;;;;;;;13.70;2.50;;;;;;;1.57;95.28;99038.61;105877;1254;66464;-76
2023/03/04 03:01:09;;;;;;;12.80;2.90;;;;;;;1.55;95.40;99041.86;105545;1254;71347;-76
2023/03/04 03:03:57;;;;;;;15.20;3.40;;;;;;;1.55;95.78;99049.55;105770;1260;59285;-76
2023/03/04 03:06:46;;;;;;;13.20;3.00;;;;;;;1.55;95.58;99046.98;105914;1255;59350;-76
2023/03/04 03:09:35;;;;;;;16.40;3.50;;;;;;;1.55;95.65;99041.73;105628;1257;72550;-77
2023/03/04 03:12:23;;;;;;;14.70;3.10;;;;;;;1.57;96.00;99039.14;105710;1257;66904;-76
2023/03/04 03:15:12;;;;;;;14.20;3.00;;;;;;;1.59;95.94;99037.44;105570;1254;70083;-76
2023/03/04 03:18:01;;;;;;;12.00;2.50;;;;;;;1.59;95.73;99023.98;105874;1257;60900;-77
2023/03/04 03:20:49;;;;;;;12.60;2.80;;;;;;;1.56;95.81;99023.48;105386;1257;60846;-76
2023/03/04 03:23:37;;;;;;;10.50;3.00;;;;;;;1.52;95.46;99027.33;105658;1258;72100;-78
2023/03/04 03:26:26;;;;;;;13.50;2.70;;;;;;;1.48;95.77;99027.57;105394;1260;69127;-76
2023/03/04 03:29:15;;;;;;;12.20;3.20;;;;;;;1.44;95.80;99027.95;105516;1257;74163;-76
2023/03/04 03:32:02;;;;;;;11.60;2.80;;;;;;;1.41;96.02;99030.60;105218;1261;59488;-77
2023/03/04 03:34:51;;;;;;;11.90;2.90;;;;;;;1.37;95.99;99030.85;105415;1261;59328;-76
2023/03/04 03:37:39;;;;;;;16.70;3.20;;;;;;;1.32;96.17;99028.66;105191;1258;72588;-76
2023/03/04 03:40:27;;;;;;;12.50;2.90;;;;;;;1.27;95.91;99031.19;105293;1256;67626;-77
2023/03/04 03:43:15;;;;;;;15.90;2.60;;;;;;;1.21;96.12;99029.27;105576;1261;73412;-77
2023/03/04 03:46:03;;;;;;;14.00;3.10;;;;;;;1.16;96.31;99024.63;105229;1257;59822;-80
2023/03/04 03:48:52;;;;;;;17.90;3.50;;;;;;;1.13;96.19;99025.34;105358;1256;59414;-75
2023/03/04 03:51:40;;;;;;;15.20;3.30;;;;;;;1.09;95.87;99018.42;105275;1258;72421;-77
2023/03/04 03:54:29;;;;;;;9.90;2.40;;;;;;;1.06;96.05;99015.61;105403;1257;67890;-78
2023/03/04 03:57:16;;;;;;;11.90;2.20;;;;;;;1.03;95.92;99017.67;105753;1254;71394;-76
2023/03/04 04:00:07;;;;;;;12.00;2.70;;;;;;;0.99;96.15;99016.67;105719;1257;59247;-79
2023/03/04 04:03:01;;;;;;;12.10;2.30;;;;;;;0.95;96.38;99017.21;105830;1254;62075;-79
2023/03/04 04:05:50;;;;;;;12.30;3.00;;;;;;;0.91;96.06;99016.95;105680;1259;74151;-76
2023/03/04 04:08:38;;;;;;;14.70;2.80;;;;;;;0.85;96.96;99015.67;105742;1258;67758;-79
2023/03/04 04:11:26;;;;;;;13.10;2.60;;;;;;;0.81;97.30;99012.40;105828;1258;70696;-77
2023/03/04 04:14:15;;;;;;;14.00;2.70;;;;;;;0.78;97.21;99018.17;105951;1259;59353;-76
2023/03/04 04:17:03;;;;;;;15.50;3.00;;;;;;;0.75;97.34;99018.17;105666;1257;59259;-76
2023/03/04 04:19:51;;;;;;;13.60;3.00;;;;;;;0.71;97.34;99017.34;105833;1254;72453;-77
2023/03/04 04:22:39;;;;;;;15.90;3.30;;;;;;;0.67;97.58;99015.20;105757;1259;67953;-77
2023/03/04 04:25:28;;;;;;;10.40;2.50;;;;;;;0.65;97.77;99023.02;105804;1254;74150;-76
2023/03/04 04:28:16;;;;;;;12.90;2.30;;;;;;;0.63;98.33;99025.41;107322;1253;59212;-76
2023/03/04 04:31:08;;;;;;;10.10;2.20;;;;;;;0.61;98.70;99021.52;107003;1254;60518;-77
2023/03/04 04:33:56;;;;;;;12.40;2.30;;;;;;;0.60;98.87;99017.52;106217;1257;71024;-77
2023/03/04 04:36:44;;;;;;;11.80;2.60;;;;;;;0.59;98.55;99019.89;105841;1254;67707;-76
2023/03/04 04:39:33;;;;;;;12.20;2.40;;;;;;;0.58;98.50;99016.63;105730;1254;74046;-74
2023/03/04 04:42:22;;;;;;;15.50;2.30;;;;;;;0.56;98.33;99017.58;105752;1259;59326;-75
2023/03/04 04:45:10;;;;;;;9.10;2.50;;;;;;;0.56;98.81;99020.54;105868;1254;59925;-76
2023/03/04 04:47:59;;;;;;;13.30;2.80;;;;;;;0.57;98.93;99020.48;105872;1254;72069;-75
2023/03/04 04:50:55;;;;;;;8.30;2.00;;;;;;;0.58;98.71;99018.70;105882;1254;66524;-76
2023/03/04 04:53:43;;;;;;;8.10;2.10;;;;;;;0.60;98.87;99019.83;105769;1259;73503;-76
2023/03/04 04:56:33;;;;;;;14.40;2.80;;;;;;;0.61;98.82;99019.93;105883;1257;59320;-76
2023/03/04 04:59:22;;;;;;;10.90;2.20;;;;;;;0.64;98.55;99016.82;106295;1254;60123;-76
2023/03/04 05:02:10;;;;;;;13.10;2.60;;;;;;;0.66;98.33;99012.15;105940;1256;72383;-77
2023/03/04 05:04:58;;;;;;;15.90;2.60;;;;;;;0.69;97.87;99010.77;105669;1256;69624;-77
2023/03/04 05:07:46;;;;;;;9.50;2.20;;;;;;;0.73;97.74;99008.14;105668;1256;71137;-76
2023/03/04 05:10:34;;;;;;;8.50;2.00;;;;;;;0.76;97.29;99010.06;105913;1256;59247;-77
2023/03/04 05:13:23;;;;;;;10.00;2.40;;;;;;;0.78;97.06;99003.13;105794;1254;60274;-76
2023/03/04 05:16:12;;;;;;;10.00;2.30;;;;;;;0.81;96.66;99003.66;105701;1257;74114;-77
2023/03/04 05:19:00;;;;;;;9.00;2.00;;;;;;;0.83;96.25;99006.00;106103;1254;67166;-78
2023/03/04 05:21:48;;;;;;;11.10;2.20;;;;;;;0.84;96.00;99007.85;105697;1258;74302;-78
2023/03/04 05:24:36;;;;;;;11.50;2.30;;;;;;;0.87;95.42;99005.09;105888;1258;59127;-75
2023/03/04 05:27:24;;;;;;;11.30;2.20;;;;;;;0.90;95.24;99010.16;105831;1256;59353;-77
2023/03/04 05:30:13;;;;;;;9.30;1.80;;;;;;;0.94;94.83;99008.89;105710;1254;73770;-77
2023/03/04 05:33:01;;;;;;;10.10;1.80;;;;;;;0.98;94.44;99012.16;105816;1254;66771;-76
2023/03/04 05:35:50;;;;;;;8.40;1.90;;;;;;;1.01;94.03;99011.64;105700;1258;70694;-76
2023/03/04 05:38:38;;;;;;;8.30;1.60;;;;;;;1.05;93.95;99015.29;105970;1256;59424;-77
2023/03/04 05:41:26;;;;;;;9.70;1.80;;;;;;;1.07;93.55;99014.14;105991;1254;60443;-75
2023/03/04 05:44:15;;;;;;;7.20;1.50;;;;;;;1.09;93.31;99020.13;105935;1253;71866;-76
2023/03/04 05:47:02;;;;;;;6.60;1.50;;;;;;;1.12;93.03;99021.20;105682;1254;67932;-77
2023/03/04 05:49:51;;;;;;;10.40;1.90;;;;;;;1.13;92.65;99025.52;105718;1256;71694;-79
2023/03/04 05:52:39;;;;;;;12.30;2.20;;;;;;;1.15;92.41;99026.10;105673;1254;59263;-79
2023/03/04 05:55:28;;;;;;;7.40;1.90;;;;;;;1.17;91.94;99024.92;105826;1256;60011;-76
2023/03/04 05:58:18;;;;;;;8.20;2.10;;;;;;;1.21;91.54;99022.84;106160;1254;71017;-77
2023/03/04 06:01:06;;;;;;;10.00;1.80;;;;;;;1.22;91.28;99022.05;105789;1257;66713;-78
2023/03/04 06:03:55;;;;;;;10.00;2.20;;;;;;;1.25;91.16;99026.61;105954;1257;72654;-78
2023/03/04 06:06:45;;;;;;;10.40;1.70;;;;;;;1.26;90.79;99026.89;106392;1254;59234;-77
2023/03/04 06:09:33;;;;;;;9.10;1.80;;;;;;;1.28;90.50;99025.21;106127;1254;60908;-77
2023/03/04 06:12:22;;;;;;;10.10;2.30;;;;;;;1.30;90.21;99031.54;105952;1257;71156;-77
2023/03/04 06:15:11;;;;;;;10.40;1.60;;;;;;;1.32;89.62;99031.29;106166;1254;67229;-77
2023/03/04 06:17:59;;;;;;;8.00;2.10;;;;;;;1.34;89.43;99030.45;105743;1254;72451;-77
2023/03/04 06:20:48;;;;;;;10.10;1.90;;;;;;;1.37;89.01;99033.95;105773;1253;59342;-75
2023/03/04 06:23:36;;;;;;;9.00;1.90;;;;;;;1.43;88.73;99036.98;105980;1254;60393;-77
2023/03/04 06:26:24;;;;;;;6.20;1.50;;;;;;;1.45;88.42;99030.89;105882;1257;73012;-75
2023/03/04 06:29:13;;;;;;;11.90;1.90;;;;;;;1.47;87.82;99033.25;105832;1254;68742;-75
2023/03/04 06:32:04;;;;;;;8.30;1.70;;;;;;;1.48;87.40;99034.02;105902;1254;71054;-76
2023/03/04 06:34:52;;;;;;;11.90;2.10;;;;;;;1.52;87.25;99034.13;105832;1258;60092;-75
2023/03/04 06:37:41;;;;;;;8.00;1.70;;;;;;;1.55;86.00;99032.59;105850;1254;60145;-74
2023/03/04 06:40:29;;;;;;;7.90;1.90;;;;;;;1.58;85.66;99030.84;105657;1256;70671;-75
2023/03/04 06:43:18;;;;;;;6.90;1.60;;;;;;;1.60;84.89;99031.96;105659;1254;67654;-75
2023/03/04 06:46:08;;;;;;;6.30;1.70;;;;;;;1.63;84.19;99026.90;105900;1254;72902;-78
2023/03/04 06:48:57;;;;;;;9.00;2.50;;;;;;;1.63;82.51;99027.23;105680;1256;59257;-73
2023/03/04 06:51:45;;;;;;;7.40;2.00;;;;;;;1.68;82.37;99031.52;105771;1254;60427;-75
2023/03/04 06:54:33;;;;;;;7.40;1.90;;;;;;;1.72;80.48;99031.14;105672;1254;72569;-74
2023/03/04 06:57:21;;;;;;;7.50;1.90;;;;;;;1.77;79.62;99035.55;105669;1254;67789;-72
2023/03/04 07:00:10;;;;;;;7.90;1.80;;;;;;;1.81;78.28;99033.58;105602;1253;73982;-75
2023/03/04 07:02:59;;;;;;;5.70;1.60;;;;;;;1.84;77.54;99037.58;105971;1258;59244;-76
2023/03/04 07:05:47;;;;;;;5.80;1.60;;;;;;;1.87;75.96;99035.31;105547;1254;61943;-75
2023/03/04 07:08:35;;;;;;;5.80;1.60;;;;;;;1.89;74.40;99039.96;105500;1254;72372;-73
2023/03/04 07:11:24;;;;;;;7.10;1.40;;;;;;;1.93;74.60;99046.01;105540;1253;68658;-74
2023/03/04 07:14:12;;;;;;;6.10;1.50;;;;;;;1.99;74.79;99047.25;105562;1254;71050;-76
2023/03/04 07:17:01;;;;;;;6.70;1.60;;;;;;;2.05;74.26;99052.48;105612;1254;59401;-74
2023/03/04 07:19:49;;;;;;;7.90;1.50;;;;;;;2.11;73.49;99055.98;105861;1253;61604;-74
2023/03/04 07:22:37;;;;;;;7.40;2.00;;;;;;;2.15;72.95;99059.60;105558;1259;71687;-74
2023/03/04 07:25:26;;;;;;;6.60;1.70;;;;;;;2.20;72.48;99059.66;105645;1253;68558;-72
2023/03/04 07:28:14;;;;;;;6.30;1.50;;;;;;;2.24;71.81;99062.89;105577;1257;73573;-73
2023/03/04 07:31:10;;;;;;;5.70;1.40;;;;;;;2.28;71.14;99068.29;105460;1259;59563;-74
2023/03/04 07:34:05;;;;;;;6.90;1.40;;;;;;;2.33;70.55;99068.50;105614;1262;60189;-75
2023/03/04 07:36:54;;;;;;;6.90;1.60;;;;;;;2.39;68.13;99072.20;105553;1254;72459;-78
2023/03/04 07:39:42;;;;;;;6.90;1.30;;;;;;;2.37;65.36;99069.52;105659;1254;66589;-77
2023/03/04 07:42:30;;;;;;;4.90;1.20;;;;;;;2.45;62.03;99076.76;105425;1254;71309;-75
2023/03/04 07:45:23;;;;;;;5.00;1.40;;;;;;;2.52;59.81;99080.69;106030;1258;59250;-75
2023/03/04 07:48:11;;;;;;;5.70;1.20;;;;;;;2.57;58.57;99081.28;105698;1256;60129;-72
2023/03/04 07:51:21;;;;;;;5.20;1.40;;;;;;;2.61;56.88;99074.73;105684;1254;73810;-74
2023/03/04 07:54:10;;;;;;;5.80;1.40;;;;;;;2.61;53.81;99080.52;105996;1253;67668;-74
2023/03/04 07:56:58;;;;;;;6.10;1.30;;;;;;;2.58;52.02;99073.84;105994;1257;73933;-76
2023/03/04 07:59:46;;;;;;;7.30;1.10;;;;;;;2.56;52.03;99081.16;105977;1254;59238;-75
2023/03/04 08:02:34;;;;;;;3.90;1.00;;;;;;;2.53;51.67;99080.96;105899;1254;60055;-73
2023/03/04 08:05:22;;;;;;;4.50;1.10;;;;;;;2.47;50.11;99079.95;105916;1254;72009;-74
2023/03/04 08:08:10;;;;;;;4.70;1.20;;;;;;;2.47;51.05;99078.88;105761;1257;67597;-74
2023/03/04 08:10:58;;;;;;;5.80;1.20;;;;;;;2.51;50.85;99078.25;105640;1254;73880;-75
2023/03/04 08:13:47;;;;;;;5.10;1.20;;;;;;;2.51;48.45;99075.46;105546;1262;59404;-76
2023/03/04 08:16:35;;;;;;;6.70;1.20;;;;;;;2.51;48.95;99069.33;105690;1254;60420;-75
2023/03/04 08:19:23;;;;;;;5.30;1.20;;;;;;;2.56;48.97;99069.95;105653;1255;72057;-74
2023/03/04 08:22:13;;;;;;;4.20;0.90;;;;;;;2.60;48.98;99075.48;105581;1256;69639;-75
2023/03/04 08:25:01;;;;;;;4.30;1.00;;;;;;;2.61;48.51;99070.88;105851;1254;71029;-74
2023/03/04 08:27:49;;;;;;;4.50;0.90;;;;;;;2.59;48.63;99066.62;105771;1258;59199;-74
2023/03/04 08:30:39;;;;;;;4.40;1.00;;;;;;;2.57;48.36;99074.42;105822;1254;60121;-72
2023/03/04 08:33:27;;;;;;;6.10;1.60;;;;;;;2.54;48.37;99080.91;105846;1255;72339;-70
2023/03/04 08:36:16;;;;;;;6.00;1.60;;;;;;;2.55;48.80;99077.02;106041;1254;67592;-72
2023/03/04 08:39:05;;;;;;;6.60;1.40;;;;;;;2.60;48.26;99079.84;105874;1255;71395;-73
2023/03/04 08:41:52;;;;;;;3.90;1.10;;;;;;;2.63;48.04;99073.23;105787;1257;59237;-69
2023/03/04 08:44:41;;;;;;;4.50;1.10;;;;;;;2.64;48.58;99075.80;105766;1254;61693;-72
2023/03/04 08:47:29;;;;;;;4.40;1.20;;;;;;;2.66;47.80;99078.96;105742;1257;72169;-72
2023/03/04 08:50:17;;;;;;;4.50;1.10;;;;;;;2.63;45.81;99089.45;105725;1254;66285;-75
2023/03/04 08:53:09;;;;;;;4.70;1.10;;;;;;;2.62;44.85;99089.39;105974;1257;73079;-75
2023/03/04 08:55:57;;;;;;;3.80;0.90;;;;;;;2.63;44.50;99094.41;105832;1256;59362;-76
2023/03/04 08:58:46;;;;;;;5.90;1.30;;;;;;;2.59;44.36;99099.52;106135;1257;60000;-76
2023/03/04 09:01:34;;;;;;;4.70;1.10;;;;;;;2.55;44.66;99099.60;105775;1256;72266;-77
2023/03/04 09:04:23;;;;;;;4.30;1.00;;;;;;;2.54;44.91;99101.90;105753;1253;66421;-75
2023/03/04 09:07:12;;;;;;;6.50;1.10;;;;;;;2.51;44.97;99106.14;105810;1256;72719;-76
2023/03/04 09:10:01;;;;;;;5.30;1.30;;;;;;;2.57;45.55;99107.17;104999;1259;1003537;-73
2023/03/04 09:12:49;;;;;;;5.60;1.60;;;;;;;2.62;44.09;99104.27;105619;1254;61596;-76
2023/03/04 09:15:43;;;;;;;5.70;1.20;;;;;;;2.61;43.29;99114.81;105635;1254;73707;-75
2023/03/04 09:18:32;;;;;;;5.60;1.10;;;;;;;2.64;42.76;99116.58;105633;1252;66386;-75
2023/03/04 09:21:20;;;;;;;5.20;1.30;;;;;;;2.65;41.66;99119.66;105701;1253;73275;-77
2023/03/04 09:24:08;;;;;;;5.20;1.30;;;;;;;2.66;41.41;99119.23;105692;1254;59247;-74
2023/03/04 09:26:56;;;;;;;6.00;1.50;;;;;;;2.67;40.62;99122.00;105721;1256;59253;-75
2023/03/04 09:29:44;;;;;;;5.60;1.30;;;;;;;2.66;40.52;99115.73;105735;1256;71917;-73
2023/03/04 09:32:32;;;;;;;4.40;1.10;;;;;;;2.71;40.46;99117.20;105811;1256;66323;-73
2023/03/04 09:35:21;;;;;;;6.50;1.30;;;;;;;2.67;39.74;99120.09;105664;1257;72411;-73
2023/03/04 09:38:09;;;;;;;8.40;1.20;;;;;;;2.69;41.06;99115.93;105747;1253;59327;-74
2023/03/04 09:41:03;;;;;;;4.00;1.10;;;;;;;2.68;40.89;99117.36;105661;1257;59310;-73
2023/03/04 09:43:53;;;;;;;4.60;1.20;;;;;;;2.64;41.49;99112.20;105677;1259;73366;-75
2023/03/04 09:46:44;;;;;;;5.00;1.00;;;;;;;2.70;42.00;99116.19;105720;1257;65676;-74
2023/03/04 09:49:35;;;;;;;6.20;1.30;;;;;;;2.83;41.75;99125.77;105900;1254;71483;-75
2023/03/04 09:53:06;;;;;;;7.30;1.40;;;;;;;2.85;40.83;99124.08;105915;1256;59233;-75
2023/03/04 09:55:55;;;;;;;5.70;1.40;;;;;;;2.98;40.79;99113.81;106002;1256;59302;-76
2023/03/04 09:58:58;;;;;;;5.70;1.50;;;;;;;3.13;41.06;99117.63;105669;1259;72012;-76
2023/03/04 10:01:55;;;;;;;4.90;1.30;;;;;;;3.37;40.74;99122.63;105873;1257;67103;-75
2023/03/04 10:04:54;;;;;;;5.10;1.10;;;;;;;3.68;40.40;99126.49;105989;1258;73453;-76
2023/03/04 10:07:48;;;;;;;4.80;1.10;;;;;;;3.91;39.64;99136.21;105836;1254;59350;-77
2023/03/04 10:10:42;;;;;;;4.90;1.00;;;;;;;4.41;37.02;99133.79;105978;1259;59320;-75
2023/03/04 10:13:40;;;;;;;4.80;1.10;;;;;;;4.87;34.45;99130.76;105708;1259;71261;-73
2023/03/04 10:16:51;;;;;;;5.20;1.20;;;;;;;5.42;32.87;99116.68;105744;1259;66395;-73
2023/03/04 10:19:57;;;;;;;6.20;1.40;;;;;;;6.42;32.35;99113.46;105703;1257;72665;-75
2023/03/04 10:22:52;;;;;;;5.30;1.20;;;;;;;6.70;31.80;99120.83;105681;1257;59347;-75
2023/03/04 10:25:45;;;;;;;5.30;1.30;;;;;;;6.64;32.09;99123.09;105676;1257;59224;-76
2023/03/04 10:28:34;;;;;;;5.70;1.40;;;;;;;6.57;32.47;99112.73;105797;1257;72057;-74
2023/03/04 10:31:38;;;;;;;6.40;1.40;;;;;;;6.57;32.63;99117.30;105894;1257;68654;-75
2023/03/04 10:34:26;;;;;;;8.30;1.60;;;;;;;6.81;31.30;99107.86;105929;1255;72533;-75
2023/03/04 10:37:14;;;;;;;5.60;1.30;;;;;;;7.99;29.11;99103.54;105050;1257;1002839;-76
2023/03/04 10:40:03;;;;;;;6.50;1.70;;;;;;;9.11;27.21;99104.91;105899;1253;60221;-76
2023/03/04 10:42:53;;;;;;;5.80;1.30;;;;;;;9.39;26.79;99099.44;105740;1255;70946;-75
2023/03/04 10:45:41;;;;;;;6.10;1.60;;;;;;;10.44;25.91;99105.64;105916;1257;66710;-76
2023/03/04 10:48:31;;;;;;;5.20;1.20;;;;;;;11.68;24.40;99105.30;105858;1255;72384;-74
2023/03/04 10:51:24;;;;;;;8.00;1.50;;;;;;;12.70;21.51;99105.86;105779;1257;59343;-74
2023/03/04 10:54:52;;;;;;;6.30;1.30;;;;;;;13.20;20.57;99111.06;105826;1257;59300;-73
2023/03/04 10:57:43;;;;;;;5.70;1.30;;;;;;;14.46;19.38;99107.21;105918;1257;72324;-74
2023/03/04 11:00:35;;;;;;;6.20;1.20;;;;;;;15.13;18.42;99099.91;105928;1255;68278;-75
2023/03/04 11:03:27;;;;;;;6.70;1.30;;;;;;;15.78;17.50;99089.96;105994;1254;72296;-76
2023/03/04 11:06:22;;;;;;;5.60;1.40;;;;;;;15.97;17.33;99097.08;105926;1257;59323;-73
2023/03/04 11:09:27;;;;;;;6.20;1.60;;;;;;;16.02;16.44;99103.95;105956;1256;59695;-73
2023/03/04 11:12:20;;;;;;;6.10;1.50;;;;;;;15.98;16.42;99095.02;105929;1259;70976;-73
2023/03/04 11:15:26;;;;;;;5.70;1.10;;;;;;;15.88;17.79;99101.10;106023;1256;67575;-74
2023/03/04 11:18:15;;;;;;;6.50;1.50;;;;;;;14.82;18.40;99106.77;105666;1257;72419;-73
2023/03/04 11:21:05;;;;;;;6.10;1.20;;;;;;;15.15;18.56;99105.79;105688;1260;59507;-76
2023/03/04 11:24:01;;;;;;;5.20;1.10;;;;;;;14.68;18.70;99112.53;105995;1260;59331;-73
2023/03/04 11:27:09;;;;;;;6.20;1.10;;;;;;;14.57;18.61;99112.88;105693;1258;73463;-76
2023/03/04 11:30:28;;;;;;;5.60;1.00;;;;;;;13.99;18.68;99113.01;105706;1259;66447;-73
2023/03/04 11:33:40;;;;;;;4.70;1.10;;;;;;;13.60;18.99;99113.56;105846;1256;71270;-73
2023/03/04 11:37:02;;;;;;;4.80;1.20;;;;;;;14.15;18.11;99115.66;105947;1254;59283;-73
2023/03/04 11:40:00;;;;;;;6.90;1.30;;;;;;;14.23;18.18;99119.54;105786;1253;61646;-74
2023/03/04 11:43:36;;;;;;;6.00;1.20;;;;;;;14.56;17.97;99127.45;105861;1256;72767;-73
2023/03/04 11:47:02;;;;;;;5.10;0.90;;;;;;;14.18;16.85;99139.00;105348;1265;68634;-73
2023/03/04 11:50:22;;;;;;;4.50;1.10;;;;;;;13.68;17.05;99137.73;105352;1264;71938;-74
2023/03/04 11:53:43;;;;;;;4.50;1.00;;;;;;;13.20;17.55;99141.17;105219;1266;59344;-74
2023/03/04 11:57:26;;;;;;;5.40;1.20;;;;;;;13.00;17.77;99135.40;105378;1266;60099;-74
2023/03/04 12:00:42;;;;;;;6.30;1.30;;;;;;;12.47;17.68;99150.24;104934;1266;73617;-74
2023/03/04 12:03:44;;;;;;;5.10;1.10;;;;;;;12.12;17.88;99148.54;105055;1270;66332;-72
2023/03/04 12:07:14;;;;;;;5.00;1.10;;;;;;;11.55;17.70;99148.84;104881;1270;72332;-72
2023/03/04 12:10:24;;;;;;;6.20;1.20;;;;;;;10.02;18.44;99162.16;104225;1279;1003706;-73
2023/03/04 12:13:24;;;;;;;8.20;1.30;;;;;;;9.13;19.70;99162.58;105087;1270;61101;-77
2023/03/04 12:16:50;;;;;;;6.10;1.20;;;;;;;8.99;20.53;99168.18;105116;1266;72026;-74
2023/03/04 12:19:42;;;;;;;5.10;1.00;;;;;;;9.31;20.90;99164.73;105081;1270;66603;-72
2023/03/04 12:22:55;;;;;;;4.70;1.00;;;;;;;9.49;20.99;99168.89;104802;1267;72730;-73
2023/03/04 12:26:03;;;;;;;5.30;1.00;;;;;;;9.44;20.80;99170.72;105130;1265;59332;-72
2023/03/04 12:29:17;;;;;;;6.40;1.20;;;;;;;9.36;21.49;99174.57;105175;1260;59328;-73
2023/03/04 12:32:28;;;;;;;5.40;1.20;;;;;;;8.86;21.77;99167.67;105019;1264;71175;-72
2023/03/04 12:35:51;;;;;;;5.50;1.20;;;;;;;7.84;22.71;99173.18;103952;1261;1003338;-72
2023/03/04 12:39:26;;;;;;;5.40;1.20;;;;;;;7.18;23.89;99188.83;105274;1270;72746;-72
2023/03/04 12:42:48;;;;;;;4.60;1.00;;;;;;;6.11;24.81;99188.67;105341;1268;59380;-73
2023/03/04 12:46:03;;;;;;;5.30;1.40;;;;;;;5.34;25.83;99201.36;104976;1263;59363;-74
2023/03/04 12:49:13;;;;;;;6.10;1.30;;;;;;;4.75;27.19;99200.57;105384;1276;73607;-74
2023/03/04 12:52:38;;;;;;;5.10;1.30;;;;;;;4.35;27.59;99207.83;105061;1264;68043;-74
2023/03/04 12:55:39;;;;;;;5.50;1.20;;;;;;;3.69;27.94;99210.11;105333;1267;71079;-74
2023/03/04 12:58:31;;;;;;;9.20;1.50;;;;;;;3.07;28.14;99217.94;105112;1267;59414;-75
2023/03/04 13:01:28;;;;;;;5.10;1.10;;;;;;;2.67;28.74;99216.73;104445;1263;1003226;-75
2023/03/04 13:04:59;;;;;;;4.90;1.50;;;;;;;2.33;28.53;99223.77;105280;1261;72235;-74
2023/03/04 13:08:24;;;;;;;4.20;1.20;;;;;;;1.99;27.36;99221.32;105553;1264;66535;-77
2023/03/04 13:11:25;;;;;;;5.30;1.30;;;;;;;1.96;26.90;99229.88;105179;1267;72726;-76
2023/03/04 13:14:13;;;;;;;5.70;1.50;;;;;;;1.99;26.51;99224.11;105304;1261;59374;-75
2023/03/04 13:17:50;;;;;;;5.60;1.30;;;;;;;2.17;27.26;99225.73;105219;1261;61081;-74
2023/03/04 13:20:40;;;;;;;5.50;1.30;;;;;;;2.61;27.85;99226.39;105763;1254;72179;-73
2023/03/04 13:23:30;;;;;;;6.70;1.40;;;;;;;2.94;28.18;99229.38;105894;1257;67656;-73
2023/03/04 13:26:39;;;;;;;5.00;1.30;;;;;;;3.20;27.80;99220.80;105853;1257;72742;-71
2023/03/04 13:29:27;;;;;;;5.20;1.20;;;;;;;3.31;27.37;99218.89;106008;1257;59631;-73
2023/03/04 13:32:37;;;;;;;4.40;1.00;;;;;;;3.19;26.54;99222.42;105773;1255;62158;-74